Terminal Aerodrome Forecast
Issued by NWS Tampa Bay Area, FL

Home | Current Version | Previous Version | Text Only | Print | Product List | Glossary On
Versions: 1 2 3 4 5 6 7 8 9 10 11 12 13 14 15 16 17 18 19 20 21 22 23 24
902
FTUS42 KTBW 062344
TAFFMY
TAF
KFMY 062344Z 0700/0724 32010KT 6SM -RA BR BKN008 OVC020
      TEMPO 0700/0703 3SM RA BR BKN005
     FM070300 33012KT 6SM BR VCSH BKN007 OVC015
     FM070900 33014G20KT P6SM BKN020 BKN100
     FM071300 33017G26KT P6SM SCT020
     FM071600 32017G26KT P6SM FEW030=

USA.gov is the U.S. government's official web portal to all federal, state and local government web resources and services.